Time;durP1;ratioP1;P1;durP2;ratioP2;P2;SDS_P1;SDS_P2;PMS_P1;PMS_P2;Temp;Humidity;BMP_temperature;BMP_pressure;BME280_temperature;BME280_humidity;BME280_pressure;Samples;Min_cycle;Max_cycle;Signal;HPM_P1;HPM_P2
2023/05/28 00:01:33;;;;;;;;;;;;;;;;;;5073977;28;1293;-66
2023/05/28 00:03:58;;;;;;;;;;;;;;;;;;5057435;28;1296;-66
2023/05/28 00:06:24;;;;;;;;;;;;;;;;;;5092065;28;904;-66
2023/05/28 00:08:49;;;;;;;;;;;;;;;;;;5091503;28;1911;-66
2023/05/28 00:11:15;;;;;;;;;;;;;;;;;;5073886;28;1240;-66
2023/05/28 00:13:40;;;;;;;;;;;;;;;;;;5073491;28;714;-66
2023/05/28 00:16:05;;;;;;;;;;;;;;;;;;5056903;28;1240;-66
2023/05/28 00:18:31;;;;;;;;;;;;;;;;;;5091820;28;852;-66
2023/05/28 00:20:56;;;;;;;;;;;;;;;;;;5091741;28;809;-66
2023/05/28 00:23:21;;;;;;;;;;;;;;;;;;5091392;28;833;-67
2023/05/28 00:25:46;;;;;;;;;;;;;;;;;;5072391;28;1183;-66
2023/05/28 00:28:12;;;;;;;;;;;;;;;;;;5091946;28;1902;-66
2023/05/28 00:30:37;;;;;;;;;;;;;;;;;;5091592;28;761;-66
2023/05/28 00:33:03;;;;;;;;;;;;;;;;;;5073188;28;801;-65
2023/05/28 00:35:28;;;;;;;;;;;;;;;;;;5072984;28;848;-66
2023/05/28 00:37:53;;;;;;;;;;;;;;;;;;5091448;28;911;-66
2023/05/28 00:40:19;;;;;;;;;;;;;;;;;;5073000;28;1437;-66
2023/05/28 00:42:44;;;;;;;;;;;;;;;;;;5091558;28;785;-66
2023/05/28 00:45:11;;;;;;;;;;;;;;;;;;5091345;28;1180;-66
2023/05/28 00:47:36;;;;;;;;;;;;;;;;;;5088763;28;2003;-65
2023/05/28 00:50:03;;;;;;;;;;;;;;;;;;5070475;28;1097;-66
2023/05/28 00:52:29;;;;;;;;;;;;;;;;;;5083685;28;1188;-66
2023/05/28 00:54:55;;;;;;;;;;;;;;;;;;5092130;28;868;-66
2023/05/28 00:57:23;;;;;;;;;;;;;;;;;;5091881;28;828;-65
2023/05/28 00:59:48;;;;;;;;;;;;;;;;;;5091517;28;892;-66
2023/05/28 01:02:13;;;;;;;;;;;;;;;;;;5091397;28;892;-67
2023/05/28 01:04:39;;;;;;;;;;;;;;;;;;5091611;28;816;-66
2023/05/28 01:07:04;;;;;;;;;;;;;;;;;;5073791;28;1018;-66
2023/05/28 01:09:30;;;;;;;;;;;;;;;;;;5073082;28;1981;-66
2023/05/28 01:11:56;;;;;;;;;;;;;;;;;;5073908;28;911;-66
2023/05/28 01:14:22;;;;;;;;;;;;;;;;;;5091949;28;762;-66
2023/05/28 01:16:51;;;;;;;;;;;;;;;;;;5074100;28;951;-66
2023/05/28 01:19:18;;;;;;;;;;;;;;;;;;5073542;28;1256;-66
2023/05/28 01:21:44;;;;;;;;;;;;;;;;;;5092265;28;882;-66
2023/05/28 01:24:13;;;;;;;;;;;;;;;;;;5073782;28;1443;-66
2023/05/28 01:26:38;;;;;;;;;;;;;;;;;;5091763;28;884;-66
2023/05/28 01:29:13;;;;;;;;;;;;;;;;;;5073577;28;2043;-66
2023/05/28 01:31:38;;;;;;;;;;;;;;;;;;5091719;28;891;-66
2023/05/28 01:34:03;;;;;;;;;;;;;;;;;;5074080;28;833;-66
2023/05/28 01:36:31;;;;;;;;;;;;;;;;;;5091778;28;787;-66
2023/05/28 01:39:02;;;;;;;;;;;;;;;;;;5094981;28;903;-66
2023/05/28 01:41:28;;;;;;;;;;;;;;;;;;5094378;28;927;-66
2023/05/28 01:43:54;;;;;;;;;;;;;;;;;;5076423;28;857;-66
2023/05/28 01:46:20;;;;;;;;;;;;;;;;;;5094455;28;817;-67
2023/05/28 01:48:46;;;;;;;;;;;;;;;;;;5094142;28;1910;-66
2023/05/28 01:51:15;;;;;;;;;;;;;;;;;;5094662;28;900;-66
2023/05/28 01:53:41;;;;;;;;;;;;;;;;;;5075513;28;1138;-66
2023/05/28 01:56:06;;;;;;;;;;;;;;;;;;5094781;28;1003;-67
2023/05/28 01:58:31;;;;;;;;;;;;;;;;;;5093791;28;836;-66
2023/05/28 02:01:09;;;;;;;;;;;;;;;;;;5076212;28;904;-66
2023/05/28 02:03:34;;;;;;;;;;;;;;;;;;5093494;28;939;-66
2023/05/28 02:05:59;;;;;;;;;;;;;;;;;;5076183;28;841;-66
2023/05/28 02:08:24;;;;;;;;;;;;;;;;;;5094182;28;1984;-66
2023/05/28 02:10:50;;;;;;;;;;;;;;;;;;5075976;28;864;-66
2023/05/28 02:13:16;;;;;;;;;;;;;;;;;;5094085;28;837;-66
2023/05/28 02:15:41;;;;;;;;;;;;;;;;;;5093562;28;895;-66
2023/05/28 02:18:10;;;;;;;;;;;;;;;;;;5058823;28;1041;-66
2023/05/28 02:20:35;;;;;;;;;;;;;;;;;;5093448;28;777;-66
2023/05/28 02:23:00;;;;;;;;;;;;;;;;;;5093735;28;763;-66
2023/05/28 02:25:26;;;;;;;;;;;;;;;;;;5075690;28;1229;-66
2023/05/28 02:27:51;;;;;;;;;;;;;;;;;;5093521;28;1963;-66
2023/05/28 02:30:16;;;;;;;;;;;;;;;;;;5093975;28;1161;-66
2023/05/28 02:32:42;;;;;;;;;;;;;;;;;;5075883;28;867;-66
2023/05/28 02:35:07;;;;;;;;;;;;;;;;;;5075848;28;782;-67
2023/05/28 02:37:33;;;;;;;;;;;;;;;;;;5075429;28;871;-66
2023/05/28 02:39:58;;;;;;;;;;;;;;;;;;5075459;28;1089;-66
2023/05/28 02:42:23;;;;;;;;;;;;;;;;;;5058549;28;1347;-66
2023/05/28 02:44:49;;;;;;;;;;;;;;;;;;5093604;28;1006;-66
2023/05/28 02:47:15;;;;;;;;;;;;;;;;;;5094073;28;919;-66
2023/05/28 02:49:40;;;;;;;;;;;;;;;;;;5093022;28;1953;-66
2023/05/28 02:52:05;;;;;;;;;;;;;;;;;;5094132;28;1231;-66
2023/05/28 02:54:31;;;;;;;;;;;;;;;;;;5093424;28;789;-66
2023/05/28 02:56:56;;;;;;;;;;;;;;;;;;5059180;28;1006;-66
2023/05/28 02:59:21;;;;;;;;;;;;;;;;;;5093901;28;861;-66
2023/05/28 03:01:47;;;;;;;;;;;;;;;;;;5058361;28;1295;-66
2023/05/28 03:04:12;;;;;;;;;;;;;;;;;;5093583;28;1022;-65
2023/05/28 03:06:38;;;;;;;;;;;;;;;;;;5093314;28;825;-65
2023/05/28 03:09:03;;;;;;;;;;;;;;;;;;5092964;28;1902;-66
2023/05/28 03:11:28;;;;;;;;;;;;;;;;;;5075074;28;880;-65
2023/05/28 03:13:53;;;;;;;;;;;;;;;;;;5074517;28;1175;-65
2023/05/28 03:16:19;;;;;;;;;;;;;;;;;;5074914;28;1107;-65
2023/05/28 03:18:44;;;;;;;;;;;;;;;;;;5092906;28;885;-65
2023/05/28 03:21:09;;;;;;;;;;;;;;;;;;5093158;28;832;-65
2023/05/28 03:23:35;;;;;;;;;;;;;;;;;;5092532;28;939;-66
2023/05/28 03:26:00;;;;;;;;;;;;;;;;;;5092696;28;841;-65
2023/05/28 03:28:25;;;;;;;;;;;;;;;;;;5057299;28;1910;-65
2023/05/28 03:30:51;;;;;;;;;;;;;;;;;;5074129;28;1179;-65
2023/05/28 03:33:16;;;;;;;;;;;;;;;;;;5056778;28;1197;-65
2023/05/28 03:35:41;;;;;;;;;;;;;;;;;;5057592;28;662;-65
2023/05/28 03:38:06;;;;;;;;;;;;;;;;;;5092640;28;798;-65
2023/05/28 03:40:32;;;;;;;;;;;;;;;;;;5092039;28;955;-65
2023/05/28 03:42:57;;;;;;;;;;;;;;;;;;5074069;28;1196;-65
2023/05/28 03:45:23;;;;;;;;;;;;;;;;;;5092285;28;908;-65
2023/05/28 03:47:48;;;;;;;;;;;;;;;;;;5056735;28;1965;-66
2023/05/28 03:50:13;;;;;;;;;;;;;;;;;;5073930;28;1233;-66
2023/05/28 03:52:38;;;;;;;;;;;;;;;;;;5073595;28;1133;-65
2023/05/28 03:55:04;;;;;;;;;;;;;;;;;;5092468;28;876;-66
2023/05/28 03:57:29;;;;;;;;;;;;;;;;;;5057188;28;1398;-66
2023/05/28 03:59:56;;;;;;;;;;;;;;;;;;5091640;28;956;-66
2023/05/28 04:02:22;;;;;;;;;;;;;;;;;;5074297;28;1105;-66
2023/05/28 04:04:51;;;;;;;;;;;;;;;;;;5073664;28;821;-66
2023/05/28 04:07:16;;;;;;;;;;;;;;;;;;5092385;28;848;-65
2023/05/28 04:09:42;;;;;;;;;;;;;;;;;;5073532;28;1917;-66
2023/05/28 04:12:07;;;;;;;;;;;;;;;;;;5073857;28;836;-66
2023/05/28 04:14:32;;;;;;;;;;;;;;;;;;5073583;28;1216;-66
2023/05/28 04:16:57;;;;;;;;;;;;;;;;;;5092026;28;912;-66
2023/05/28 04:19:23;;;;;;;;;;;;;;;;;;5057213;28;1262;-66
2023/05/28 04:21:49;;;;;;;;;;;;;;;;;;5057022;28;1196;-66
2023/05/28 04:24:14;;;;;;;;;;;;;;;;;;5074858;28;1610;-66
2023/05/28 04:26:39;;;;;;;;;;;;;;;;;;5091717;28;883;-66
2023/05/28 04:29:05;;;;;;;;;;;;;;;;;;5073960;28;1897;-66
2023/05/28 04:31:31;;;;;;;;;;;;;;;;;;5092276;28;875;-66
2023/05/28 04:33:57;;;;;;;;;;;;;;;;;;5091855;28;859;-66
2023/05/28 04:36:29;;;;;;;;;;;;;;;;;;5073947;28;1216;-66
2023/05/28 04:38:56;;;;;;;;;;;;;;;;;;5074468;28;791;-66
2023/05/28 04:41:22;;;;;;;;;;;;;;;;;;5092221;28;785;-66
2023/05/28 04:43:48;;;;;;;;;;;;;;;;;;5073535;28;1274;-66
2023/05/28 04:46:14;;;;;;;;;;;;;;;;;;5073871;28;849;-66
2023/05/28 04:48:39;;;;;;;;;;;;;;;;;;5091231;28;1963;-66
2023/05/28 04:51:05;;;;;;;;;;;;;;;;;;5073861;28;821;-66
2023/05/28 04:53:31;;;;;;;;;;;;;;;;;;5073366;28;1077;-66
2023/05/28 04:55:56;;;;;;;;;;;;;;;;;;5056103;28;1121;-66
2023/05/28 04:58:22;;;;;;;;;;;;;;;;;;5091676;28;883;-66
2023/05/28 05:00:47;;;;;;;;;;;;;;;;;;5072900;28;1296;-66
2023/05/28 05:03:14;;;;;;;;;;;;;;;;;;5092146;28;785;-66
2023/05/28 05:05:40;;;;;;;;;;;;;;;;;;5090783;28;852;-66
2023/05/28 05:08:05;;;;;;;;;;;;;;;;;;5091670;28;1972;-67
2023/05/28 05:10:30;;;;;;;;;;;;;;;;;;5091333;28;891;-67
2023/05/28 05:12:56;;;;;;;;;;;;;;;;;;5076178;28;1456;-66
2023/05/28 05:15:21;;;;;;;;;;;;;;;;;;5076969;28;1147;-66
2023/05/28 05:17:46;;;;;;;;;;;;;;;;;;5076884;28;963;-66
2023/05/28 05:20:12;;;;;;;;;;;;;;;;;;5077010;28;1548;-66
2023/05/28 05:22:37;;;;;;;;;;;;;;;;;;5094662;28;896;-66
2023/05/28 05:25:03;;;;;;;;;;;;;;;;;;5094773;28;788;-66
2023/05/28 05:27:28;;;;;;;;;;;;;;;;;;5060190;28;1155;-66
2023/05/28 05:29:53;;;;;;;;;;;;;;;;;;5094193;28;1975;-67
2023/05/28 05:32:19;;;;;;;;;;;;;;;;;;5076818;28;1345;-67
2023/05/28 05:34:44;;;;;;;;;;;;;;;;;;5093340;28;1218;-66
2023/05/28 05:37:09;;;;;;;;;;;;;;;;;;5061139;28;1238;-66
2023/05/28 05:39:34;;;;;;;;;;;;;;;;;;5056477;28;1300;-67
2023/05/28 05:42:01;;;;;;;;;;;;;;;;;;5056474;28;1388;-67
2023/05/28 05:44:26;;;;;;;;;;;;;;;;;;5056020;28;841;-67
2023/05/28 05:46:51;;;;;;;;;;;;;;;;;;5073438;28;869;-67
2023/05/28 05:49:16;;;;;;;;;;;;;;;;;;5074488;28;1928;-67
2023/05/28 05:51:42;;;;;;;;;;;;;;;;;;5056032;28;1192;-67
2023/05/28 05:54:07;;;;;;;;;;;;;;;;;;5039393;28;1176;-66
2023/05/28 05:56:32;;;;;;;;;;;;;;;;;;5057239;28;1356;-68
2023/05/28 05:58:58;;;;;;;;;;;;;;;;;;5074323;28;837;-66
2023/05/28 06:01:24;;;;;;;;;;;;;;;;;;5057865;28;1231;-66
2023/05/28 06:03:49;;;;;;;;;;;;;;;;;;5074654;28;829;-66
2023/05/28 06:06:14;;;;;;;;;;;;;;;;;;5057181;28;956;-66
2023/05/28 06:08:40;;;;;;;;;;;;;;;;;;5056175;28;1909;-65
2023/05/28 06:11:05;;;;;;;;;;;;;;;;;;5056422;28;1556;-65
2023/05/28 06:13:31;;;;;;;;;;;;;;;;;;5074694;28;1145;-66
2023/05/28 06:15:56;;;;;;;;;;;;;;;;;;5055696;28;1311;-66
2023/05/28 06:18:23;;;;;;;;;;;;;;;;;;5056335;28;920;-66
2023/05/28 06:20:49;;;;;;;;;;;;;;;;;;5056202;28;1401;-66
2023/05/28 06:23:14;;;;;;;;;;;;;;;;;;5056126;28;1386;-67
2023/05/28 06:25:39;;;;;;;;;;;;;;;;;;5039160;28;1131;-67
2023/05/28 06:28:05;;;;;;;;;;;;;;;;;;5073973;28;1964;-67
2023/05/28 06:30:30;;;;;;;;;;;;;;;;;;5073938;28;852;-67
2023/05/28 06:32:56;;;;;;;;;;;;;;;;;;5055649;28;1355;-67
2023/05/28 06:35:21;;;;;;;;;;;;;;;;;;5074022;28;845;-67
2023/05/28 06:37:46;;;;;;;;;;;;;;;;;;5039046;28;1359;-66
2023/05/28 06:40:12;;;;;;;;;;;;;;;;;;5074255;28;853;-67
2023/05/28 06:42:38;;;;;;;;;;;;;;;;;;5039157;28;1251;-67
2023/05/28 06:45:03;;;;;;;;;;;;;;;;;;5055503;28;1283;-67
2023/05/28 06:47:29;;;;;;;;;;;;;;;;;;5055747;28;1184;-67
2023/05/28 06:49:55;;;;;;;;;;;;;;;;;;5072959;28;1902;-67
2023/05/28 06:52:20;;;;;;;;;;;;;;;;;;5048748;28;1189;-67
2023/05/28 06:54:46;;;;;;;;;;;;;;;;;;5032047;28;861;-67
2023/05/28 06:57:11;;;;;;;;;;;;;;;;;;5033982;28;877;-67
2023/05/28 06:59:36;;;;;;;;;;;;;;;;;;5015703;28;1329;-67
2023/05/28 07:02:02;;;;;;;;;;;;;;;;;;5033450;28;920;-67
2023/05/28 07:04:27;;;;;;;;;;;;;;;;;;5032086;28;1070;-67
2023/05/28 07:06:53;;;;;;;;;;;;;;;;;;5031653;28;1195;-67
2023/05/28 07:09:18;;;;;;;;;;;;;;;;;;5031911;28;1959;-67
2023/05/28 07:11:43;;;;;;;;;;;;;;;;;;5033468;28;857;-67
2023/05/28 07:14:09;;;;;;;;;;;;;;;;;;5033005;28;860;-67
2023/05/28 07:16:34;;;;;;;;;;;;;;;;;;5032418;28;941;-67
2023/05/28 07:18:59;;;;;;;;;;;;;;;;;;5032920;28;936;-67
2023/05/28 07:21:25;;;;;;;;;;;;;;;;;;5032623;28;857;-67
2023/05/28 07:23:50;;;;;;;;;;;;;;;;;;5032313;28;1347;-67
2023/05/28 07:26:15;;;;;;;;;;;;;;;;;;5032903;28;1287;-67
2023/05/28 07:28:41;;;;;;;;;;;;;;;;;;5032576;28;1901;-67
2023/05/28 07:31:06;;;;;;;;;;;;;;;;;;5033743;28;996;-66
2023/05/28 07:33:31;;;;;;;;;;;;;;;;;;5034787;28;896;-67
2023/05/28 07:35:56;;;;;;;;;;;;;;;;;;5031649;28;1176;-67
2023/05/28 07:38:22;;;;;;;;;;;;;;;;;;5033048;28;988;-67
2023/05/28 07:40:47;;;;;;;;;;;;;;;;;;5033792;28;876;-67
2023/05/28 07:43:12;;;;;;;;;;;;;;;;;;5034028;28;892;-68
2023/05/28 07:45:38;;;;;;;;;;;;;;;;;;5033902;28;849;-67
2023/05/28 07:48:03;;;;;;;;;;;;;;;;;;5031988;28;1906;-67
2023/05/28 07:50:28;;;;;;;;;;;;;;;;;;5015591;28;1303;-66
2023/05/28 07:52:54;;;;;;;;;;;;;;;;;;5015687;28;1342;-67
2023/05/28 07:55:19;;;;;;;;;;;;;;;;;;5033327;28;1039;-66
2023/05/28 07:57:44;;;;;;;;;;;;;;;;;;5031576;28;881;-67
2023/05/28 08:00:12;;;;;;;;;;;;;;;;;;5031055;28;1266;-67
2023/05/28 08:02:37;;;;;;;;;;;;;;;;;;5032182;28;915;-67
2023/05/28 08:05:03;;;;;;;;;;;;;;;;;;5032530;28;908;-68
2023/05/28 08:07:28;;;;;;;;;;;;;;;;;;5030800;28;1204;-69
2023/05/28 08:09:53;;;;;;;;;;;;;;;;;;5030384;28;1999;-68
2023/05/28 08:12:19;;;;;;;;;;;;;;;;;;5030799;28;1414;-68
2023/05/28 08:14:44;;;;;;;;;;;;;;;;;;5032325;28;832;-68
2023/05/28 08:17:10;;;;;;;;;;;;;;;;;;5030852;28;931;-67
2023/05/28 08:19:38;;;;;;;;;;;;;;;;;;5031353;28;861;-68
2023/05/28 08:22:04;;;;;;;;;;;;;;;;;;5031744;28;791;-68
2023/05/28 08:24:30;;;;;;;;;;;;;;;;;;5031647;28;865;-68
2023/05/28 08:26:55;;;;;;;;;;;;;;;;;;5032343;28;852;-68
2023/05/28 08:29:21;;;;;;;;;;;;;;;;;;5030639;28;1894;-68
2023/05/28 08:31:46;;;;;;;;;;;;;;;;;;5032239;28;826;-68
2023/05/28 08:34:11;;;;;;;;;;;;;;;;;;5031633;28;927;-68
2023/05/28 08:36:37;;;;;;;;;;;;;;;;;;5031916;28;849;-68
2023/05/28 08:39:03;;;;;;;;;;;;;;;;;;5030025;28;1417;-68
2023/05/28 08:41:28;;;;;;;;;;;;;;;;;;5030816;28;1240;-68
2023/05/28 08:43:53;;;;;;;;;;;;;;;;;;5032256;28;889;-68
2023/05/28 08:46:19;;;;;;;;;;;;;;;;;;5031271;28;1179;-69
2023/05/28 08:48:45;;;;;;;;;;;;;;;;;;5034323;28;1957;-68
2023/05/28 08:51:11;;;;;;;;;;;;;;;;;;5051327;28;1206;-67
2023/05/28 08:53:42;;;;;;;;;;;;;;;;;;5034415;28;1512;-67
2023/05/28 08:56:09;;;;;;;;;;;;;;;;;;5034351;28;1177;-67
2023/05/28 08:58:38;;;;;;;;;;;;;;;;;;5035954;28;829;-68
2023/05/28 09:01:07;;;;;;;;;;;;;;;;;;5036138;28;883;-68
2023/05/28 09:03:33;;;;;;;;;;;;;;;;;;5036684;28;820;-68
2023/05/28 09:05:58;;;;;;;;;;;;;;;;;;5035968;28;849;-68
2023/05/28 09:08:24;;;;;;;;;;;;;;;;;;5036101;28;1965;-69
2023/05/28 09:10:49;;;;;;;;;;;;;;;;;;5034913;28;1370;-68
2023/05/28 09:13:19;;;;;;;;;;;;;;;;;;5036074;28;771;-68
2023/05/28 09:15:49;;;;;;;;;;;;;;;;;;5034606;28;1332;-68
2023/05/28 09:18:18;;;;;;;;;;;;;;;;;;5033490;28;1203;-67
2023/05/28 09:20:44;;;;;;;;;;;;;;;;;;5034419;28;884;-67
2023/05/28 09:23:09;;;;;;;;;;;;;;;;;;5035832;28;896;-67
2023/05/28 09:25:35;;;;;;;;;;;;;;;;;;5035395;28;857;-67
2023/05/28 09:28:01;;;;;;;;;;;;;;;;;;5033722;28;1977;-67
2023/05/28 09:30:26;;;;;;;;;;;;;;;;;;5034199;28;917;-66
2023/05/28 09:32:56;;;;;;;;;;;;;;;;;;5033422;28;825;-68
2023/05/28 09:35:23;;;;;;;;;;;;;;;;;;5033351;28;1195;-67
2023/05/28 09:37:58;;;;;;;;;;;;;;;;;;5033542;28;864;-67
2023/05/28 09:40:25;;;;;;;;;;;;;;;;;;5034992;28;880;-67
2023/05/28 09:42:51;;;;;;;;;;;;;;;;;;5033286;28;1123;-67
2023/05/28 09:45:22;;;;;;;;;;;;;;;;;;5016676;28;1522;-67
2023/05/28 09:47:47;;;;;;;;;;;;;;;;;;5034198;28;1240;-67
2023/05/28 09:50:12;;;;;;;;;;;;;;;;;;5016791;28;1906;-67
2023/05/28 09:52:42;;;;;;;;;;;;;;;;;;5032818;28;1325;-67
2023/05/28 09:55:11;;;;;;;;;;;;;;;;;;5034249;28;856;-68
2023/05/28 09:57:40;;;;;;;;;;;;;;;;;;5031820;28;1105;-67
2023/05/28 10:00:14;;;;;;;;;;;;;;;;;;5033188;28;876;-69
2023/05/28 10:02:42;;;;;;;;;;;;;;;;;;5033516;28;868;-67
2023/05/28 10:05:09;;;;;;;;;;;;;;;;;;5031833;28;1221;-67
2023/05/28 10:07:35;;;;;;;;;;;;;;;;;;5033187;28;841;-67
2023/05/28 10:10:01;;;;;;;;;;;;;;;;;;5031223;28;1902;-67
2023/05/28 10:12:28;;;;;;;;;;;;;;;;;;5032016;28;1248;-67
2023/05/28 10:14:54;;;;;;;;;;;;;;;;;;5033925;28;908;-68
2023/05/28 10:17:21;;;;;;;;;;;;;;;;;;5015985;28;1338;-68
2023/05/28 10:19:46;;;;;;;;;;;;;;;;;;5031776;28;1164;-69
2023/05/28 10:22:12;;;;;;;;;;;;;;;;;;5033729;28;972;-68
2023/05/28 10:24:38;;;;;;;;;;;;;;;;;;5033708;28;1027;-69
2023/05/28 10:27:09;;;;;;;;;;;;;;;;;;5015434;28;1189;-68
2023/05/28 10:29:41;;;;;;;;;;;;;;;;;;5031720;28;1967;-68
2023/05/28 10:32:07;;;;;;;;;;;;;;;;;;5033169;28;900;-67
2023/05/28 10:34:32;;;;;;;;;;;;;;;;;;5031613;28;927;-67
2023/05/28 10:37:02;;;;;;;;;;;;;;;;;;5030706;28;1309;-67
2023/05/28 10:39:36;;;;;;;;;;;;;;;;;;5032574;28;864;-67
2023/05/28 10:42:02;;;;;;;;;;;;;;;;;;5032639;28;1019;-67
2023/05/28 10:44:47;;;;;;;;;;;;;;;;;;5031693;28;1374;-67
2023/05/28 10:47:13;;;;;;;;;;;;;;;;;;5033075;28;880;-67
2023/05/28 10:49:57;;;;;;;;;;;;;;;;;;5030693;28;1910;-67
2023/05/28 10:52:22;;;;;;;;;;;;;;;;;;4914796;28;3434189;-67
2023/05/28 10:54:50;;;;;;;;;;;;;;;;;;5056047;28;1239;-67
2023/05/28 10:57:20;;;;;;;;;;;;;;;;;;5055364;28;1267;-67
2023/05/28 10:59:58;;;;;;;;;;;;;;;;;;5073081;28;817;-67
2023/05/28 11:02:25;;;;;;;;;;;;;;;;;;5073248;28;864;-67
2023/05/28 11:04:51;;;;;;;;;;;;;;;;;;5073062;28;802;-67
2023/05/28 11:07:18;;;;;;;;;;;;;;;;;;5072805;28;884;-67
2023/05/28 11:09:47;;;;;;;;;;;;;;;;;;5054055;28;1918;-67
2023/05/28 11:12:12;;;;;;;;;;;;;;;;;;5073028;28;825;-67
2023/05/28 11:14:38;;;;;;;;;;;;;;;;;;5054854;28;1465;-68
2023/05/28 11:17:07;;;;;;;;;;;;;;;;;;5072799;28;995;-68
2023/05/28 11:19:40;;;;;;;;;;;;;;;;;;5072341;28;852;-68
2023/05/28 11:22:05;;;;;;;;;;;;;;;;;;5054356;28;1417;-68
2023/05/28 11:24:32;;;;;;;;;;;;;;;;;;5071755;28;861;-68
2023/05/28 11:26:57;;;;;;;;;;;;;;;;;;5054558;28;881;-67
2023/05/28 11:29:23;;;;;;;;;;;;;;;;;;5054319;28;1978;-68
2023/05/28 11:31:48;;;;;;;;;;;;;;;;;;5054079;28;1188;-68
2023/05/28 11:34:14;;;;;;;;;;;;;;;;;;5072841;28;852;-68
2023/05/28 11:36:43;;;;;;;;;;;;;;;;;;5072875;28;995;-68
2023/05/28 11:39:08;;;;;;;;;;;;;;;;;;5054992;28;886;-68
2023/05/28 11:41:33;;;;;;;;;;;;;;;;;;5054524;28;1157;-68
2023/05/28 11:43:59;;;;;;;;;;;;;;;;;;5072729;28;821;-68
2023/05/28 11:46:24;;;;;;;;;;;;;;;;;;5054735;28;892;-68
2023/05/28 11:48:50;;;;;;;;;;;;;;;;;;5054718;28;1901;-68
2023/05/28 11:51:18;;;;;;;;;;;;;;;;;;5072845;28;805;-68
2023/05/28 11:53:43;;;;;;;;;;;;;;;;;;5054086;28;1404;-67
2023/05/28 11:56:10;;;;;;;;;;;;;;;;;;5072604;28;869;-68
2023/05/28 11:58:40;;;;;;;;;;;;;;;;;;5071789;28;829;-68
2023/05/28 12:01:06;;;;;;;;;;;;;;;;;;5072328;28;863;-68
2023/05/28 12:03:31;;;;;;;;;;;;;;;;;;5071317;28;809;-68
2023/05/28 12:05:56;;;;;;;;;;;;;;;;;;5071467;28;817;-68
2023/05/28 12:08:21;;;;;;;;;;;;;;;;;;5037098;28;1962;-68
2023/05/28 12:10:47;;;;;;;;;;;;;;;;;;5053647;28;1449;-68
2023/05/28 12:13:13;;;;;;;;;;;;;;;;;;5071532;28;860;-68
2023/05/28 12:15:38;;;;;;;;;;;;;;;;;;5071522;28;850;-67
2023/05/28 12:18:04;;;;;;;;;;;;;;;;;;5071505;28;801;-68
2023/05/28 12:20:31;;;;;;;;;;;;;;;;;;5071550;28;884;-68
2023/05/28 12:23:00;;;;;;;;;;;;;;;;;;5071707;28;825;-68
2023/05/28 12:25:25;;;;;;;;;;;;;;;;;;5053581;28;1450;-67
2023/05/28 12:27:51;;;;;;;;;;;;;;;;;;5053360;28;1346;-68
2023/05/28 12:30:16;;;;;;;;;;;;;;;;;;5071480;28;1882;-68
2023/05/28 12:32:41;;;;;;;;;;;;;;;;;;5072326;28;774;-67
2023/05/28 12:35:07;;;;;;;;;;;;;;;;;;5071911;28;750;-68
2023/05/28 12:37:32;;;;;;;;;;;;;;;;;;5053521;28;849;-68
2023/05/28 12:39:58;;;;;;;;;;;;;;;;;;5053648;28;798;-68
2023/05/28 12:42:23;;;;;;;;;;;;;;;;;;5053674;28;1176;-68
2023/05/28 12:44:48;;;;;;;;;;;;;;;;;;5071481;28;845;-68
2023/05/28 12:47:13;;;;;;;;;;;;;;;;;;5037599;28;1145;-67
2023/05/28 12:49:39;;;;;;;;;;;;;;;;;;5037006;28;1905;-68
2023/05/28 12:52:04;;;;;;;;;;;;;;;;;;5053631;28;806;-68
2023/05/28 12:54:29;;;;;;;;;;;;;;;;;;5031141;28;1197;-68
2023/05/28 12:56:55;;;;;;;;;;;;;;;;;;5031668;28;833;-68
2023/05/28 12:59:21;;;;;;;;;;;;;;;;;;5030052;28;1502;-68
2023/05/28 13:01:46;;;;;;;;;;;;;;;;;;5030116;28;1343;-67
2023/05/28 13:04:12;;;;;;;;;;;;;;;;;;5032580;28;881;-68
2023/05/28 13:06:37;;;;;;;;;;;;;;;;;;5030610;28;1621;-68
2023/05/28 13:09:04;;;;;;;;;;;;;;;;;;5030310;28;1946;-67
2023/05/28 13:11:29;;;;;;;;;;;;;;;;;;5030672;28;696;-67
2023/05/28 13:13:55;;;;;;;;;;;;;;;;;;5031913;28;1077;-67
2023/05/28 13:16:20;;;;;;;;;;;;;;;;;;5014002;28;1256;-67
2023/05/28 13:18:45;;;;;;;;;;;;;;;;;;5031716;28;826;-68
2023/05/28 13:21:11;;;;;;;;;;;;;;;;;;5031861;28;920;-68
2023/05/28 13:23:36;;;;;;;;;;;;;;;;;;5029943;28;865;-68
2023/05/28 13:26:01;;;;;;;;;;;;;;;;;;5030231;28;1200;-68
2023/05/28 13:28:27;;;;;;;;;;;;;;;;;;5030161;28;1902;-67
2023/05/28 13:30:52;;;;;;;;;;;;;;;;;;5031603;28;750;-68
2023/05/28 13:33:17;;;;;;;;;;;;;;;;;;5033635;28;842;-67
2023/05/28 13:35:43;;;;;;;;;;;;;;;;;;5017251;28;1150;-67
2023/05/28 13:38:08;;;;;;;;;;;;;;;;;;5033765;28;840;-67
2023/05/28 13:40:34;;;;;;;;;;;;;;;;;;5034558;28;837;-67
2023/05/28 13:42:59;;;;;;;;;;;;;;;;;;5034753;28;896;-67
2023/05/28 13:45:24;;;;;;;;;;;;;;;;;;5033355;28;1358;-67
2023/05/28 13:47:50;;;;;;;;;;;;;;;;;;5034666;28;896;-67
2023/05/28 13:50:16;;;;;;;;;;;;;;;;;;5033895;28;1961;-67
2023/05/28 13:52:43;;;;;;;;;;;;;;;;;;5043068;28;1129;-67
2023/05/28 13:55:08;;;;;;;;;;;;;;;;;;5075149;28;844;-67
2023/05/28 13:57:33;;;;;;;;;;;;;;;;;;5057109;28;1188;-68
2023/05/28 14:00:05;;;;;;;;;;;;;;;;;;5056901;28;991;-67
2023/05/28 14:02:30;;;;;;;;;;;;;;;;;;5041137;28;1320;-67
2023/05/28 14:04:56;;;;;;;;;;;;;;;;;;5056945;28;809;-67
2023/05/28 14:07:21;;;;;;;;;;;;;;;;;;5057288;28;1216;-67
2023/05/28 14:09:46;;;;;;;;;;;;;;;;;;5075089;28;2040;-68
2023/05/28 14:12:11;;;;;;;;;;;;;;;;;;5075586;28;921;-68
2023/05/28 14:14:37;;;;;;;;;;;;;;;;;;5056809;28;921;-67
2023/05/28 14:17:02;;;;;;;;;;;;;;;;;;5075008;28;853;-68
2023/05/28 14:19:28;;;;;;;;;;;;;;;;;;5074478;28;868;-68
2023/05/28 14:21:53;;;;;;;;;;;;;;;;;;5056438;28;1168;-67
2023/05/28 14:24:18;;;;;;;;;;;;;;;;;;5056742;28;895;-68
2023/05/28 14:26:44;;;;;;;;;;;;;;;;;;5056890;28;1009;-68
2023/05/28 14:29:09;;;;;;;;;;;;;;;;;;5074667;28;1910;-67
2023/05/28 14:31:35;;;;;;;;;;;;;;;;;;5074339;28;1069;-67
2023/05/28 14:34:00;;;;;;;;;;;;;;;;;;5056512;28;1317;-67
2023/05/28 14:36:25;;;;;;;;;;;;;;;;;;5040158;28;1301;-67
2023/05/28 14:38:50;;;;;;;;;;;;;;;;;;5039135;28;1455;-67
2023/05/28 14:41:16;;;;;;;;;;;;;;;;;;5074310;28;851;-67
2023/05/28 14:43:41;;;;;;;;;;;;;;;;;;5038720;28;1215;-67
2023/05/28 14:46:06;;;;;;;;;;;;;;;;;;5055284;28;1282;-67
2023/05/28 14:48:31;;;;;;;;;;;;;;;;;;5055590;28;1953;-67
2023/05/28 14:50:57;;;;;;;;;;;;;;;;;;5073290;28;829;-67
2023/05/28 14:53:22;;;;;;;;;;;;;;;;;;5073349;28;1346;-67
2023/05/28 14:55:47;;;;;;;;;;;;;;;;;;5073680;28;833;-67
2023/05/28 14:58:13;;;;;;;;;;;;;;;;;;5055488;28;1077;-67
2023/05/28 15:00:38;;;;;;;;;;;;;;;;;;5054725;28;1164;-67
2023/05/28 15:03:03;;;;;;;;;;;;;;;;;;5054833;28;1357;-67
2023/05/28 15:05:28;;;;;;;;;;;;;;;;;;5073211;28;935;-67
2023/05/28 15:07:54;;;;;;;;;;;;;;;;;;5072436;28;762;-67
2023/05/28 15:10:19;;;;;;;;;;;;;;;;;;5038443;28;1910;-67
2023/05/28 15:12:45;;;;;;;;;;;;;;;;;;5055115;28;817;-66
2023/05/28 15:15:10;;;;;;;;;;;;;;;;;;5072971;28;785;-67
2023/05/28 15:17:36;;;;;;;;;;;;;;;;;;5054731;28;1393;-68
2023/05/28 15:20:02;;;;;;;;;;;;;;;;;;5038302;28;753;-66
2023/05/28 15:22:28;;;;;;;;;;;;;;;;;;5054507;28;1099;-67
2023/05/28 15:24:53;;;;;;;;;;;;;;;;;;5054578;28;1020;-68
2023/05/28 15:27:18;;;;;;;;;;;;;;;;;;5072710;28;829;-67
2023/05/28 15:29:44;;;;;;;;;;;;;;;;;;5054697;28;1902;-67
2023/05/28 15:32:10;;;;;;;;;;;;;;;;;;5072876;28;785;-67
2023/05/28 15:34:35;;;;;;;;;;;;;;;;;;5054916;28;912;-68
2023/05/28 15:37:01;;;;;;;;;;;;;;;;;;5054978;28;1038;-68
2023/05/28 15:39:26;;;;;;;;;;;;;;;;;;5038248;28;1024;-68
2023/05/28 15:41:54;;;;;;;;;;;;;;;;;;5072374;28;887;-68
2023/05/28 15:44:19;;;;;;;;;;;;;;;;;;5054615;28;1330;-68
2023/05/28 15:46:45;;;;;;;;;;;;;;;;;;5055169;28;821;-68
2023/05/28 15:49:10;;;;;;;;;;;;;;;;;;5054259;28;1886;-67
2023/05/28 15:51:36;;;;;;;;;;;;;;;;;;5072289;28;801;-68
2023/05/28 15:54:01;;;;;;;;;;;;;;;;;;5037956;28;1305;-68
2023/05/28 15:56:27;;;;;;;;;;;;;;;;;;5072206;28;936;-68
2023/05/28 15:58:52;;;;;;;;;;;;;;;;;;5054961;28;1188;-67
2023/05/28 16:01:18;;;;;;;;;;;;;;;;;;5073163;28;918;-67
2023/05/28 16:03:43;;;;;;;;;;;;;;;;;;5054402;28;918;-67
2023/05/28 16:06:10;;;;;;;;;;;;;;;;;;5073035;28;919;-67
2023/05/28 16:08:35;;;;;;;;;;;;;;;;;;5072409;28;1961;-68
2023/05/28 16:11:01;;;;;;;;;;;;;;;;;;5054669;28;1489;-67
2023/05/28 16:13:27;;;;;;;;;;;;;;;;;;5054378;28;869;-67
2023/05/28 16:15:53;;;;;;;;;;;;;;;;;;5071844;28;853;-68
2023/05/28 16:18:19;;;;;;;;;;;;;;;;;;5054517;28;1347;-67
2023/05/28 16:20:45;;;;;;;;;;;;;;;;;;5072291;28;973;-68
2023/05/28 16:23:11;;;;;;;;;;;;;;;;;;5054057;28;1168;-68
2023/05/28 16:25:37;;;;;;;;;;;;;;;;;;5071885;28;1014;-68
2023/05/28 16:28:03;;;;;;;;;;;;;;;;;;5053666;28;1204;-68
2023/05/28 16:30:28;;;;;;;;;;;;;;;;;;5071661;28;1902;-67
2023/05/28 16:32:54;;;;;;;;;;;;;;;;;;5053384;28;1243;-68
2023/05/28 16:35:20;;;;;;;;;;;;;;;;;;5036806;28;1145;-68
2023/05/28 16:37:46;;;;;;;;;;;;;;;;;;5053655;28;1480;-68
2023/05/28 16:40:11;;;;;;;;;;;;;;;;;;5054008;28;1322;-68
2023/05/28 16:42:38;;;;;;;;;;;;;;;;;;5036928;28;1513;-68
2023/05/28 16:45:04;;;;;;;;;;;;;;;;;;5071407;28;872;-68
2023/05/28 16:47:34;;;;;;;;;;;;;;;;;;5037193;28;1033;-68
2023/05/28 16:50:00;;;;;;;;;;;;;;;;;;5053523;28;1906;-68
2023/05/28 16:52:28;;;;;;;;;;;;;;;;;;5072084;28;1184;-68
2023/05/28 16:54:55;;;;;;;;;;;;;;;;;;5037546;28;1070;-68
2023/05/28 16:57:21;;;;;;;;;;;;;;;;;;5053804;28;908;-69
2023/05/28 16:59:46;;;;;;;;;;;;;;;;;;5053863;28;694;-67
2023/05/28 17:02:12;;;;;;;;;;;;;;;;;;5054057;28;1059;-67